Ash Grove, Missouri
Current Conditions -  °F | °C
As of 5:52 PM on Saturday 20 Dec 2014 (Local Time) from KSGF Reporting Station
Overcast Overcast  
Wind Chill: 38°   Ceiling: 1800
Heat Index: 42°   Visibility: 10mi
Dew Point: 36°   Wind: 6mph
Humidity: 79%   Direction: 210°SSW
Pressure: 30.17"   Gusts: NA
Location:  37.32°N, 93.59°W
Report Text: KSGF 202352Z 21005KT 10SM OVC018 06/02 A3017 RMK AO2 SLP223 T00560022 10056 20050 55001
Loading
Personal Weather Stations






























Interactive Weather Map New forecast layout! Learn more

10-Day Weather Forecast

Advertisements
Track Severe Weather on mobile